createdAt,value
2023-01-31T00:04:18.363Z,7.55
2023-01-31T00:09:20.238Z,7.07
2023-01-31T00:14:21.782Z,7.35
2023-01-31T00:19:23.310Z,7.10
2023-01-31T00:24:27.058Z,6.10
2023-01-31T00:29:31.040Z,6.55
2023-01-31T00:34:32.601Z,7.15
2023-01-31T00:39:34.643Z,5.82
2023-01-31T00:44:36.566Z,6.32
2023-01-31T00:49:38.403Z,7.85
2023-01-31T00:54:40.074Z,8.00
2023-01-31T00:59:41.674Z,7.50
2023-01-31T01:04:43.445Z,9.52
2023-01-31T01:09:47.054Z,7.78
2023-01-31T01:14:49.334Z,9.23
2023-01-31T01:19:50.933Z,9.80
2023-01-31T01:24:52.646Z,12.05
2023-01-31T01:29:54.265Z,10.68
2023-01-31T01:34:58.360Z,10.13
2023-01-31T01:39:59.887Z,9.90
2023-01-31T01:45:05.104Z,10.82
2023-01-31T01:50:16.475Z,11.85
2023-01-31T01:55:36.575Z,11.20
2023-01-31T02:00:46.360Z,12.77
2023-01-31T02:06:01.895Z,11.82
2023-01-31T02:11:10.097Z,11.90
2023-01-31T02:16:12.844Z,13.50
2023-01-31T02:21:52.543Z,16.15
2023-01-31T02:27:18.586Z,12.80
2023-01-31T02:32:39.381Z,16.77
2023-01-31T02:38:08.803Z,12.07
2023-01-31T02:43:22.937Z,12.13
2023-01-31T02:48:43.682Z,14.18
2023-01-31T02:53:57.066Z,13.65
2023-01-31T02:59:12.835Z,14.30
2023-01-31T03:04:14.858Z,17.00
2023-01-31T03:09:25.709Z,16.67
2023-01-31T03:14:36.417Z,15.77
2023-01-31T03:19:59.072Z,13.80
2023-01-31T03:25:05.517Z,14.98
2023-01-31T03:30:18.794Z,15.18
2023-01-31T03:35:24.115Z,15.25
2023-01-31T03:40:41.993Z,17.70
2023-01-31T03:45:55.861Z,13.00
2023-01-31T03:51:01.593Z,15.30
2023-01-31T03:56:09.775Z,18.10
2023-01-31T04:01:12.921Z,17.67
2023-01-31T04:06:15.021Z,16.67
2023-01-31T04:11:21.579Z,15.98
2023-01-31T04:16:23.601Z,16.40
2023-01-31T04:21:25.256Z,15.52
2023-01-31T04:26:26.921Z,17.02
2023-01-31T04:31:28.603Z,20.40
2023-01-31T04:36:30.361Z,18.95
2023-01-31T04:41:32.080Z,17.70
2023-01-31T04:46:33.706Z,20.38
2023-01-31T04:51:35.292Z,16.25
2023-01-31T04:56:36.827Z,19.92
2023-01-31T05:01:38.381Z,15.57
2023-01-31T05:06:39.958Z,18.75
2023-01-31T05:11:41.527Z,17.40
2023-01-31T05:16:47.299Z,18.75
2023-01-31T05:22:00.628Z,20.63
2023-01-31T05:27:02.690Z,24.45
2023-01-31T05:32:05.990Z,28.48
2023-01-31T05:37:07.573Z,25.35
2023-01-31T05:42:09.112Z,37.30
2023-01-31T05:47:10.879Z,36.13
2023-01-31T05:52:12.495Z,27.77
2023-01-31T05:57:15.294Z,27.13
2023-01-31T06:02:17.022Z,22.73
2023-01-31T06:07:18.655Z,26.50
2023-01-31T06:12:20.219Z,25.25
2023-01-31T06:17:24.043Z,30.92
2023-01-31T06:22:27.760Z,28.48
2023-01-31T06:27:33.035Z,22.33
2023-01-31T06:32:34.645Z,24.85
2023-01-31T06:37:36.192Z,25.48
2023-01-31T06:42:37.773Z,25.00
2023-01-31T06:47:39.555Z,21.58
2023-01-31T06:52:41.627Z,25.13
2023-01-31T06:57:47.452Z,21.40
2023-01-31T07:02:49.254Z,19.95
2023-01-31T07:07:53.861Z,18.33
2023-01-31T07:12:55.536Z,19.75
2023-01-31T07:17:59.438Z,15.73
2023-01-31T07:23:01.212Z,17.60
2023-01-31T07:28:03.437Z,16.88
2023-01-31T07:33:05.648Z,17.10
2023-01-31T07:38:07.835Z,18.45
2023-01-31T07:43:10.487Z,15.70
2023-01-31T07:48:13.226Z,19.10
2023-01-31T07:53:14.763Z,16.67
2023-01-31T07:58:16.763Z,18.33
2023-01-31T08:03:34.565Z,16.70
2023-01-31T08:08:37.857Z,19.95
2023-01-31T08:13:39.933Z,17.58
2023-01-31T08:18:41.705Z,18.90
2023-01-31T08:23:44.669Z,19.30
2023-01-31T08:28:48.286Z,19.08
2023-01-31T08:33:53.420Z,17.00
2023-01-31T08:38:55.718Z,16.77
2023-01-31T08:43:59.017Z,17.63
2023-01-31T08:49:03.000Z,17.65
2023-01-31T08:54:04.671Z,17.88
2023-01-31T08:59:07.357Z,14.55
2023-01-31T09:04:13.386Z,13.30
2023-01-31T09:09:15.052Z,16.98
2023-01-31T09:14:16.557Z,16.38
2023-01-31T09:19:18.200Z,14.30
2023-01-31T09:25:06.235Z,13.18
2023-01-31T09:30:10.411Z,12.25
2023-01-31T09:35:16.584Z,15.60
2023-01-31T09:40:26.588Z,13.75
2023-01-31T09:45:43.184Z,14.95
2023-01-31T09:50:51.940Z,15.57
2023-01-31T10:01:16.003Z,14.77
2023-01-31T10:06:30.607Z,19.92
2023-01-31T10:11:41.006Z,18.48
2023-01-31T10:16:50.379Z,18.90
2023-01-31T10:21:57.573Z,16.42
2023-01-31T10:27:15.980Z,17.88
2023-01-31T10:32:55.193Z,16.35
2023-01-31T10:38:32.252Z,17.30
2023-01-31T10:43:42.065Z,15.85
2023-01-31T10:54:07.036Z,33.85
2023-01-31T10:59:19.326Z,31.60
2023-01-31T11:04:25.492Z,17.80
2023-01-31T11:09:49.775Z,12.75
2023-01-31T11:15:14.242Z,14.60
2023-01-31T11:20:21.480Z,10.98
2023-01-31T11:25:25.373Z,12.63
2023-01-31T11:30:35.087Z,10.48
2023-01-31T11:40:40.247Z,11.60
2023-01-31T11:45:54.074Z,12.80
2023-01-31T11:50:58.388Z,11.63
2023-01-31T11:56:16.584Z,12.52
2023-01-31T12:01:23.124Z,10.75
2023-01-31T12:06:27.692Z,14.85
2023-01-31T12:11:31.932Z,12.50
2023-01-31T12:16:35.414Z,12.70
2023-01-31T12:22:08.081Z,12.25
2023-01-31T12:27:37.117Z,11.57
2023-01-31T12:32:54.512Z,9.73
2023-01-31T12:38:07.033Z,10.10
2023-01-31T12:43:45.881Z,7.22
2023-01-31T12:48:47.876Z,10.73
2023-01-31T12:54:04.904Z,9.63
2023-01-31T12:59:48.389Z,9.80
2023-01-31T13:04:59.616Z,9.55
2023-01-31T13:10:05.354Z,7.53
2023-01-31T13:15:30.361Z,6.10
2023-01-31T13:20:38.833Z,9.60
2023-01-31T13:26:14.893Z,7.20
2023-01-31T13:31:24.847Z,6.35
2023-01-31T13:36:35.461Z,9.00
2023-01-31T13:41:37.196Z,6.10
2023-01-31T13:46:56.184Z,7.13
2023-01-31T13:52:00.424Z,7.97
2023-01-31T13:57:03.083Z,6.95
2023-01-31T14:02:17.139Z,9.70
2023-01-31T14:07:21.143Z,8.38
2023-01-31T14:12:22.848Z,9.80
2023-01-31T14:17:33.074Z,12.68
2023-01-31T14:22:41.327Z,10.02
2023-01-31T14:27:42.889Z,8.00
2023-01-31T14:32:48.683Z,6.20
2023-01-31T14:38:08.297Z,8.13
2023-01-31T14:43:32.016Z,8.70
2023-01-31T14:48:45.682Z,11.40
2023-01-31T14:54:35.302Z,10.25
2023-01-31T14:59:59.788Z,13.30
2023-01-31T15:05:17.373Z,10.38
2023-01-31T15:10:58.177Z,9.27
2023-01-31T15:16:02.747Z,9.15
2023-01-31T15:21:07.517Z,9.77
2023-01-31T15:26:11.041Z,12.00
2023-01-31T15:31:41.270Z,7.55
2023-01-31T15:37:04.566Z,9.43
2023-01-31T15:42:26.949Z,9.65
2023-01-31T15:47:28.512Z,9.82
2023-01-31T15:52:34.404Z,9.38
2023-01-31T15:57:44.514Z,8.20
2023-01-31T16:02:47.224Z,11.15
2023-01-31T16:07:49.559Z,11.43
2023-01-31T16:12:53.196Z,8.65
2023-01-31T16:18:00.302Z,8.75
2023-01-31T16:23:02.646Z,10.98
2023-01-31T16:28:06.761Z,7.28
2023-01-31T16:33:16.833Z,11.20
2023-01-31T16:38:24.031Z,10.88
2023-01-31T16:43:31.823Z,10.32
2023-01-31T16:48:39.020Z,9.90
2023-01-31T16:53:41.637Z,10.68
2023-01-31T16:58:49.310Z,9.52
2023-01-31T17:04:09.026Z,9.68
2023-01-31T17:14:16.021Z,11.57
2023-01-31T17:19:17.700Z,10.50
2023-01-31T17:24:22.627Z,9.32
2023-01-31T17:29:25.988Z,7.25
2023-01-31T17:34:27.550Z,11.90
2023-01-31T17:39:29.126Z,10.27
2023-01-31T17:44:31.058Z,8.90
2023-01-31T17:49:34.914Z,9.40
2023-01-31T17:54:36.501Z,8.27
2023-01-31T17:59:38.185Z,13.32
2023-01-31T18:04:39.768Z,10.65
2023-01-31T18:09:41.332Z,12.32
2023-01-31T18:14:43.084Z,9.05
2023-01-31T18:19:44.593Z,9.95
2023-01-31T18:24:46.211Z,9.63
2023-01-31T18:29:47.725Z,10.32
2023-01-31T18:34:49.446Z,9.73
2023-01-31T18:39:52.659Z,12.25
2023-01-31T18:44:54.253Z,11.40
2023-01-31T18:49:55.905Z,9.25
2023-01-31T18:54:57.534Z,12.20
2023-01-31T18:59:59.072Z,11.07
2023-01-31T19:05:01.830Z,15.25
2023-01-31T19:10:04.101Z,10.18
2023-01-31T19:15:07.732Z,10.13
2023-01-31T19:20:10.247Z,9.77
2023-01-31T19:25:11.892Z,9.10
2023-01-31T19:30:14.067Z,8.45
2023-01-31T19:35:15.714Z,9.20
2023-01-31T19:40:17.480Z,8.60
2023-01-31T19:45:22.804Z,10.63
2023-01-31T19:50:24.572Z,13.10
2023-01-31T19:55:26.123Z,8.27
2023-01-31T20:00:31.811Z,8.27
2023-01-31T20:05:33.484Z,10.27
2023-01-31T20:10:37.441Z,12.45
2023-01-31T20:15:39.038Z,10.75
2023-01-31T20:20:44.115Z,9.00
2023-01-31T20:25:49.421Z,13.32
2023-01-31T20:30:51.443Z,12.60
2023-01-31T20:35:53.049Z,14.18
2023-01-31T20:40:55.563Z,11.88
2023-01-31T20:46:10.380Z,10.02
2023-01-31T20:51:11.987Z,11.90
2023-01-31T20:56:13.582Z,8.90
2023-01-31T21:01:15.224Z,11.93
2023-01-31T21:06:16.797Z,9.80
2023-01-31T21:11:18.383Z,10.45
2023-01-31T21:16:20.086Z,9.43
2023-01-31T21:21:24.365Z,7.95
2023-01-31T21:26:27.127Z,6.63
2023-01-31T21:31:29.963Z,10.82
2023-01-31T21:36:32.961Z,14.50
2023-01-31T21:41:52.725Z,8.85
2023-01-31T21:51:55.831Z,10.50
2023-01-31T21:56:57.883Z,11.32
2023-01-31T22:01:59.674Z,11.77
2023-01-31T22:07:01.641Z,10.43
2023-01-31T22:12:03.367Z,11.60
2023-01-31T22:17:05.109Z,10.63
2023-01-31T22:22:06.640Z,10.45
2023-01-31T22:27:08.185Z,10.80
2023-01-31T22:32:09.869Z,11.23
2023-01-31T22:37:11.505Z,12.20
2023-01-31T22:42:13.058Z,11.68
2023-01-31T22:47:14.681Z,13.40
2023-01-31T22:52:16.263Z,12.00
2023-01-31T22:57:17.843Z,10.25
2023-01-31T23:02:19.369Z,10.63
2023-01-31T23:07:20.920Z,11.57
2023-01-31T23:12:22.533Z,13.32
2023-01-31T23:17:39.365Z,13.45
2023-01-31T23:22:41.461Z,13.98
2023-01-31T23:27:43.610Z,11.98
2023-01-31T23:32:45.586Z,15.95
2023-01-31T23:37:49.609Z,12.25
2023-01-31T23:42:51.185Z,9.23
2023-01-31T23:47:52.871Z,9.50
2023-01-31T23:52:55.844Z,10.65
2023-01-31T23:57:57.384Z,8.90
